Time;durP1;ratioP1;P1;durP2;ratioP2;P2;SDS_P1;SDS_P2;PMS_P1;PMS_P2;Temp;Humidity;BMP_temperature;BMP_pressure;BME280_temperature;BME280_humidity;BME280_pressure;Samples;Min_cycle;Max_cycle;Signal;HPM_P1;HPM_P2
2022/11/23 00:01:25;;;;;;;4.70;4.18;;;;;;;9.05;97.49;99118.31;4938816;28;20415;-67
2022/11/23 00:03:55;;;;;;;5.13;4.00;;;;;;;9.00;97.83;99115.72;4937313;29;20058;-66
2022/11/23 00:06:24;;;;;;;6.15;4.35;;;;;;;9.12;96.09;99118.72;4954677;29;20055;-67
2022/11/23 00:08:53;;;;;;;6.18;4.45;;;;;;;9.08;96.73;99116.91;4949256;29;20059;-67
2022/11/23 00:11:22;;;;;;;6.15;4.40;;;;;;;9.14;96.90;99132.06;4937544;29;20403;-66
2022/11/23 00:13:51;;;;;;;6.80;4.40;;;;;;;9.12;97.66;99137.84;4937804;29;20055;-66
2022/11/23 00:16:28;;;;;;;6.32;4.68;;;;;;;9.05;98.54;99140.16;4938035;29;20063;-66
2022/11/23 00:18:58;;;;;;;5.03;4.45;;;;;;;8.89;98.58;99136.94;4937545;29;20067;-66
2022/11/23 00:21:28;;;;;;;4.93;4.03;;;;;;;9.11;97.80;99144.41;4936304;29;20048;-66
2022/11/23 00:23:56;;;;;;;7.70;4.72;;;;;;;9.11;98.05;99149.06;4937790;29;20055;-67
2022/11/23 00:26:24;;;;;;;6.30;4.47;;;;;;;9.05;98.09;99153.78;4937250;29;20410;-66
2022/11/23 00:28:52;;;;;;;7.28;4.70;;;;;;;8.98;97.82;99156.13;4937273;29;20051;-66
2022/11/23 00:31:20;;;;;;;6.35;4.72;;;;;;;8.99;97.57;99147.66;4945785;29;20402;-66
2022/11/23 00:33:50;;;;;;;8.07;4.93;;;;;;;9.16;97.13;99157.13;4956807;29;20047;-66
2022/11/23 00:36:19;;;;;;;6.20;4.85;;;;;;;9.13;97.26;99163.19;4954711;29;20406;-66
2022/11/23 00:38:48;;;;;;;5.70;4.20;;;;;;;9.00;97.62;99154.72;4956106;29;20059;-66
2022/11/23 00:41:19;;;;;;;6.45;4.55;;;;;;;8.83;98.19;99158.06;4955850;29;20043;-66
2022/11/23 00:43:47;;;;;;;4.80;4.10;;;;;;;8.85;98.71;99161.28;4955096;29;20513;-66
2022/11/23 00:46:18;;;;;;;7.35;4.40;;;;;;;8.97;98.63;99162.69;4955859;28;20371;-67
2022/11/23 00:48:48;;;;;;;5.05;4.20;;;;;;;8.77;99.22;99161.19;4956697;29;20058;-66
2022/11/23 00:51:19;;;;;;;6.20;4.80;;;;;;;8.95;98.70;99162.22;4955588;29;20509;-66
2022/11/23 00:53:49;;;;;;;5.93;4.43;;;;;;;8.70;98.37;99167.06;4956666;29;20054;-66
2022/11/23 00:56:18;;;;;;;8.25;4.15;;;;;;;8.70;98.57;99156.94;4956485;28;20054;-66
2022/11/23 00:58:50;;;;;;;6.45;4.03;;;;;;;8.49;97.44;99156.50;4948828;28;20399;-66
2022/11/23 01:01:21;;;;;;;4.53;3.70;;;;;;;8.74;96.63;99165.31;4946292;29;20062;-66
2022/11/23 01:03:52;;;;;;;5.28;3.80;;;;;;;8.74;97.08;99166.16;4939337;29;20047;-66
2022/11/23 01:06:26;;;;;;;4.68;3.63;;;;;;;8.82;96.77;99167.38;4938619;29;20055;-66
2022/11/23 01:09:03;;;;;;;4.63;3.67;;;;;;;8.80;96.37;99172.28;4952875;29;20054;-66
2022/11/23 01:11:31;;;;;;;4.50;3.40;;;;;;;8.75;96.38;99180.56;4956230;29;20050;-66
2022/11/23 01:14:00;;;;;;;4.93;3.47;;;;;;;8.66;97.92;99183.19;4955424;28;20055;-66
2022/11/23 01:16:30;;;;;;;7.32;4.38;;;;;;;8.47;98.50;99183.25;4953764;29;20047;-66
2022/11/23 01:19:01;;;;;;;5.70;4.40;;;;;;;8.49;99.23;99183.75;4953960;29;20043;-66
2022/11/23 01:21:31;;;;;;;8.35;3.75;;;;;;;8.46;98.94;99187.09;4954312;29;20526;-66
2022/11/23 01:23:59;;;;;;;5.40;3.92;;;;;;;8.46;98.57;99193.34;4954888;28;20051;-67
2022/11/23 01:26:27;;;;;;;6.63;4.53;;;;;;;8.40;98.72;99196.47;4934075;29;20044;-66
2022/11/23 01:28:57;;;;;;;6.28;4.28;;;;;;;8.34;99.20;99204.75;4936670;29;20051;-66
2022/11/23 01:31:26;;;;;;;5.28;4.35;;;;;;;8.30;99.96;99206.44;4955137;29;20062;-67
2022/11/23 01:33:56;;;;;;;6.22;4.75;;;;;;;8.28;100.00;99210.56;4955136;29;20051;-66
2022/11/23 01:36:26;;;;;;;7.05;4.85;;;;;;;8.26;100.00;99202.69;4955011;29;20062;-66
2022/11/23 01:38:56;;;;;;;6.00;4.78;;;;;;;8.23;100.00;99213.38;4954646;29;20055;-66
2022/11/23 01:41:27;;;;;;;7.60;5.45;;;;;;;8.27;100.00;99219.84;4955553;28;20471;-66
2022/11/23 01:43:54;;;;;;;8.60;5.18;;;;;;;8.26;100.00;99226.41;4955161;29;20059;-66
2022/11/23 01:46:24;;;;;;;7.57;5.32;;;;;;;8.23;100.00;99224.28;4954633;29;20069;-66
2022/11/23 01:49:13;;;;;;;10.48;5.45;;;;;;;8.06;100.00;99225.63;4935047;29;20059;-66
2022/11/23 01:51:45;;;;;;;6.82;5.03;;;;;;;7.96;100.00;99225.78;4937166;29;20047;-66
2022/11/23 01:54:16;;;;;;;7.68;5.10;;;;;;;7.92;100.00;99231.03;4951057;29;20503;-66
2022/11/23 01:56:49;;;;;;;9.02;5.65;;;;;;;7.90;100.00;99241.38;4938176;29;20040;-66
2022/11/23 01:59:19;;;;;;;6.43;5.18;;;;;;;7.78;100.00;99237.19;4918540;29;20051;-66
2022/11/23 02:01:47;;;;;;;7.53;5.60;;;;;;;7.82;100.00;99250.22;4934055;29;20064;-66
2022/11/23 02:04:22;;;;;;;8.73;5.47;;;;;;;7.70;100.00;99248.75;4936216;29;20048;-66
2022/11/23 02:06:51;;;;;;;6.63;5.28;;;;;;;7.75;100.00;99261.47;4918750;29;20059;-67
2022/11/23 02:09:21;;;;;;;8.07;5.50;;;;;;;7.69;100.00;99258.03;4942964;29;20051;-67
2022/11/23 02:11:51;;;;;;;7.50;5.53;;;;;;;7.66;100.00;99262.16;4936318;29;20047;-66
2022/11/23 02:14:18;;;;;;;8.68;6.00;;;;;;;7.73;100.00;99266.41;4953454;29;20782;-67
2022/11/23 02:16:57;;;;;;;7.97;5.78;;;;;;;7.68;100.00;99253.69;4954363;29;20427;-66
2022/11/23 02:19:50;;;;;;;7.93;5.65;;;;;;;7.66;100.00;99273.03;4951570;29;20418;-67
2022/11/23 02:22:43;;;;;;;9.63;6.03;;;;;;;7.66;100.00;99273.03;4935543;29;20403;-66
2022/11/23 02:25:24;;;;;;;9.75;6.38;;;;;;;7.63;100.00;99278.25;4937040;29;20058;-66
2022/11/23 02:27:53;;;;;;;7.68;6.25;;;;;;;7.60;100.00;99263.31;4951620;29;20051;-67
2022/11/23 02:30:21;;;;;;;9.57;6.35;;;;;;;7.66;100.00;99274.94;4937564;29;20046;-67
2022/11/23 02:32:52;;;;;;;10.60;7.05;;;;;;;7.72;100.00;99278.41;4954370;29;20047;-67
2022/11/23 02:35:20;;;;;;;6.68;5.90;;;;;;;7.76;100.00;99288.44;4954804;29;20051;-66
2022/11/23 02:37:49;;;;;;;10.90;7.05;;;;;;;7.77;100.00;99292.75;4953681;28;20043;-67
2022/11/23 02:40:33;;;;;;;11.93;6.60;;;;;;;7.65;100.00;99295.94;4953871;29;20066;-67
2022/11/23 02:43:01;;;;;;;;;;;;;;;7.63;100.00;99289.16;4936035;29;20051;-67
2022/11/23 02:45:53;;;;;;;8.90;6.78;;;;;;;7.55;100.00;99287.88;4954178;29;19922;-67
2022/11/23 02:48:24;;;;;;;8.57;6.57;;;;;;;7.48;100.00;99288.22;4952142;29;20054;-66
2022/11/23 02:50:52;;;;;;;7.55;6.45;;;;;;;7.30;100.00;99292.53;4938717;29;20052;-67
2022/11/23 02:53:20;;;;;;;9.02;7.05;;;;;;;7.26;100.00;99286.88;4934961;29;20048;-67
2022/11/23 02:55:48;;;;;;;10.20;6.80;;;;;;;7.24;100.00;99305.38;4935062;29;20067;-67
2022/11/23 02:58:17;;;;;;;11.13;7.57;;;;;;;7.20;100.00;99296.19;4917681;29;20051;-67
2022/11/23 03:00:46;;;;;;;8.48;6.75;;;;;;;7.16;100.00;99308.75;4936370;29;20035;-67
2022/11/23 03:03:17;;;;;;;9.00;6.65;;;;;;;7.14;100.00;99310.94;4953143;29;20055;-67
2022/11/23 03:05:44;;;;;;;7.75;6.10;;;;;;;7.09;100.00;99311.00;4952946;29;20058;-67
2022/11/23 03:08:12;;;;;;;8.45;6.65;;;;;;;6.99;100.00;99309.16;4935518;29;20051;-66
2022/11/23 03:10:40;;;;;;;8.30;5.97;;;;;;;7.02;100.00;99315.94;4954147;28;20051;-67
2022/11/23 03:13:08;;;;;;;7.53;5.85;;;;;;;7.06;100.00;99317.81;4952909;29;20044;-67
2022/11/23 03:15:38;;;;;;;10.05;6.75;;;;;;;6.99;100.00;99318.16;4937509;29;20055;-66
2022/11/23 03:18:06;;;;;;;8.73;5.90;;;;;;;6.93;100.00;99322.00;4935876;29;20043;-66
2022/11/23 03:20:35;;;;;;;9.57;6.85;;;;;;;6.89;100.00;99315.50;4914651;29;20403;-66
2022/11/23 03:23:04;;;;;;;8.52;6.22;;;;;;;6.91;100.00;99313.34;4929553;29;20064;-67
2022/11/23 03:25:32;;;;;;;7.72;5.97;;;;;;;6.91;100.00;99318.78;4947040;29;20044;-66
2022/11/23 03:28:03;;;;;;;7.97;5.85;;;;;;;6.94;100.00;99320.13;4930469;29;20514;-66
2022/11/23 03:30:32;;;;;;;11.25;6.65;;;;;;;6.93;100.00;99324.72;4933070;29;20063;-67
2022/11/23 03:33:02;;;;;;;8.23;6.07;;;;;;;6.81;100.00;99325.13;4917208;29;20063;-67
2022/11/23 03:35:30;;;;;;;8.55;5.65;;;;;;;6.71;100.00;99317.84;4951392;29;20062;-66
2022/11/23 03:38:21;;;;;;;7.13;5.78;;;;;;;6.74;100.00;99329.28;4948105;28;20620;-66
2022/11/23 03:40:50;;;;;;;6.55;5.45;;;;;;;6.69;100.00;99322.78;4940607;29;20402;-66
2022/11/23 03:43:39;;;;;;;8.55;6.25;;;;;;;6.58;100.00;99321.22;4939195;29;20051;-66
2022/11/23 03:46:07;;;;;;;8.43;5.03;;;;;;;6.51;100.00;99315.31;4939508;29;20051;-67
2022/11/23 03:48:35;;;;;;;8.10;5.18;;;;;;;6.50;100.00;99321.84;4956310;29;20043;-66
2022/11/23 03:51:03;;;;;;;8.65;5.60;;;;;;;6.53;100.00;99326.69;4937203;29;20052;-67
2022/11/23 03:53:31;;;;;;;7.72;5.22;;;;;;;6.41;100.00;99330.59;4902385;29;20411;-67
2022/11/23 03:55:59;;;;;;;7.30;5.05;;;;;;;6.39;100.00;99318.38;4917372;29;20052;-67
2022/11/23 03:58:31;;;;;;;6.85;5.30;;;;;;;6.39;100.00;99327.34;4913733;29;20050;-67
2022/11/23 04:01:00;;;;;;;6.25;5.05;;;;;;;6.32;100.00;99329.56;4938595;29;20086;-67
2022/11/23 04:03:28;;;;;;;5.47;4.45;;;;;;;6.22;100.00;99329.63;4956252;29;20047;-67
2022/11/23 04:06:19;;;;;;;7.40;4.47;;;;;;;6.15;100.00;99325.34;4946513;28;20062;-66
2022/11/23 04:08:53;;;;;;;;;;;;;;;6.02;100.00;99323.22;4946489;29;20043;-67
2022/11/23 04:11:54;;;;;;;6.90;4.22;;;;;;;5.99;100.00;99331.91;4933054;28;19922;-67
2022/11/23 04:14:22;;;;;;;6.78;4.70;;;;;;;5.98;100.00;99324.84;4957376;28;20043;-67
2022/11/23 04:16:50;;;;;;;7.75;5.13;;;;;;;5.91;100.00;99336.00;4939436;29;20066;-67
2022/11/23 04:19:18;;;;;;;6.43;4.53;;;;;;;5.85;100.00;99326.28;4942151;29;20051;-67
2022/11/23 04:21:47;;;;;;;5.78;4.45;;;;;;;5.78;100.00;99335.53;4941125;28;20035;-67
2022/11/23 04:24:15;;;;;;;7.10;4.82;;;;;;;5.77;100.00;99342.06;4926324;29;20040;-67
2022/11/23 04:26:43;;;;;;;7.82;4.50;;;;;;;5.70;100.00;99340.72;4935711;29;20044;-66
2022/11/23 04:29:11;;;;;;;6.07;4.32;;;;;;;5.68;100.00;99338.31;4930178;29;20051;-66
2022/11/23 04:31:44;;;;;;;5.18;4.22;;;;;;;5.60;100.00;99330.72;4920254;29;20047;-67
2022/11/23 04:34:16;;;;;;;7.53;5.22;;;;;;;5.69;100.00;99337.22;4920259;29;20066;-67
2022/11/23 04:36:44;;;;;;;7.15;4.57;;;;;;;5.77;100.00;99324.97;4924377;29;20482;-66
2022/11/23 04:39:13;;;;;;;6.75;4.53;;;;;;;5.77;100.00;99324.97;4932757;29;20055;-67
2022/11/23 04:41:57;;;;;;;7.43;4.90;;;;;;;5.73;100.00;99332.84;4938537;29;20150;-67
2022/11/23 04:44:25;;;;;;;6.53;4.90;;;;;;;5.81;100.00;99345.03;4938720;29;20441;-67
2022/11/23 04:46:59;;;;;;;6.50;4.72;;;;;;;5.68;100.00;99349.16;4939642;29;20047;-66
2022/11/23 04:49:27;;;;;;;6.97;5.07;;;;;;;5.65;100.00;99350.53;4951294;29;20600;-67
2022/11/23 04:51:56;;;;;;;5.90;4.40;;;;;;;5.63;100.00;99347.28;4956054;29;20054;-67
2022/11/23 04:54:31;;;;;;;6.60;4.75;;;;;;;5.59;100.00;99351.66;4939391;29;20403;-67
2022/11/23 04:57:01;;;;;;;10.25;4.75;;;;;;;5.63;100.00;99355.41;4939465;29;20479;-67
2022/11/23 04:59:29;;;;;;;6.43;4.88;;;;;;;5.60;100.00;99350.56;4954067;29;20475;-67
2022/11/23 05:01:58;;;;;;;8.00;4.70;;;;;;;5.56;100.00;99356.78;4938301;29;20505;-67
2022/11/23 05:04:47;;;;;;;7.72;4.85;;;;;;;5.61;100.00;99362.19;4938784;29;20124;-67
2022/11/23 05:07:17;;;;;;;6.05;4.30;;;;;;;5.55;100.00;99364.13;4938030;29;20058;-67
2022/11/23 05:09:51;;;;;;;7.95;4.47;;;;;;;5.53;100.00;99369.03;4900052;29;20055;-67
2022/11/23 05:12:21;;;;;;;7.40;4.35;;;;;;;5.51;100.00;99374.72;4901040;29;20052;-67
2022/11/23 05:14:49;;;;;;;6.32;4.45;;;;;;;5.49;100.00;99367.97;4931884;29;20067;-67
2022/11/23 05:17:23;;;;;;;8.30;4.93;;;;;;;5.51;100.00;99373.91;4900558;29;20117;-67
2022/11/23 05:19:54;;;;;;;8.07;4.47;;;;;;;5.45;100.00;99367.69;4954696;29;20043;-66
2022/11/23 05:22:23;;;;;;;6.43;4.38;;;;;;;5.41;100.00;99376.63;4938694;29;20048;-67
2022/11/23 05:24:53;;;;;;;6.97;4.88;;;;;;;5.43;100.00;99371.78;4938972;29;20398;-67
2022/11/23 05:27:23;;;;;;;7.30;5.05;;;;;;;5.33;100.00;99364.47;4937916;29;20047;-67
2022/11/23 05:29:51;;;;;;;8.70;4.78;;;;;;;5.54;100.00;99369.84;4955106;28;20054;-75
2022/11/23 05:32:19;;;;;;;7.53;4.53;;;;;;;5.45;100.00;99367.69;4905615;29;20051;-67
2022/11/23 05:34:47;;;;;;;6.13;4.22;;;;;;;5.49;100.00;99373.38;4953965;29;20059;-67
2022/11/23 05:37:17;;;;;;;6.07;4.28;;;;;;;5.50;100.00;99366.84;4935284;29;20059;-66
2022/11/23 05:39:53;;;;;;;5.20;3.60;;;;;;;5.48;100.00;99369.03;4918275;29;20491;-66
2022/11/23 05:42:22;;;;;;;5.72;4.43;;;;;;;5.43;100.00;99372.56;4916103;29;20048;-66
2022/11/23 05:44:52;;;;;;;11.68;5.35;;;;;;;5.32;100.00;99365.56;4908352;29;20055;-66
2022/11/23 05:47:26;;;;;;;6.82;4.85;;;;;;;5.29;100.00;99368.81;4919345;29;20042;-68
2022/11/23 05:49:54;;;;;;;7.45;4.55;;;;;;;5.25;100.00;99365.84;4935700;29;20062;-66
2022/11/23 05:52:26;;;;;;;7.15;4.57;;;;;;;5.35;100.00;99368.53;4937831;29;20062;-66
2022/11/23 05:54:54;;;;;;;6.78;4.45;;;;;;;5.48;100.00;99374.47;4947399;29;20043;-67
2022/11/23 05:57:22;;;;;;;6.20;4.68;;;;;;;5.42;100.00;99365.53;4920156;29;20051;-67
2022/11/23 05:59:51;;;;;;;6.72;4.45;;;;;;;5.41;100.00;99376.63;4918718;29;20058;-66
2022/11/23 06:02:24;;;;;;;7.38;5.47;;;;;;;5.33;100.00;99381.53;4917023;29;20062;-66
2022/11/23 06:04:58;;;;;;;8.75;5.22;;;;;;;5.22;100.00;99390.78;4918100;29;20054;-66
2022/11/23 06:07:36;;;;;;;9.48;6.70;;;;;;;5.37;100.00;99381.81;4935004;29;20059;-66
2022/11/23 06:10:09;;;;;;;7.53;6.00;;;;;;;5.37;100.00;99382.63;4931833;29;20058;-66
2022/11/23 06:12:40;;;;;;;7.55;5.70;;;;;;;5.33;100.00;99391.59;4939743;29;20502;-65
2022/11/23 06:15:12;;;;;;;7.72;5.47;;;;;;;5.34;100.00;99388.59;4936140;29;20502;-66
2022/11/23 06:17:40;;;;;;;6.90;4.90;;;;;;;5.22;100.00;99399.75;4936372;29;20055;-66
2022/11/23 06:20:14;;;;;;;8.43;4.80;;;;;;;5.11;100.00;99398.94;4918703;29;20056;-66
2022/11/23 06:22:52;;;;;;;9.73;5.70;;;;;;;5.10;100.00;99394.59;4898848;29;20063;-66
2022/11/23 06:25:22;;;;;;;9.35;5.97;;;;;;;5.17;100.00;99398.91;4914471;29;20059;-66
2022/11/23 06:28:05;;;;;;;9.27;5.88;;;;;;;5.18;100.00;99409.50;4903074;29;20044;-66
2022/11/23 06:30:40;;;;;;;10.57;5.65;;;;;;;5.16;100.00;99402.72;4935410;29;20054;-66
2022/11/23 06:33:08;;;;;;;10.88;6.25;;;;;;;5.15;100.00;99414.66;4913869;29;20395;-66
2022/11/23 06:35:55;;;;;;;9.45;6.40;;;;;;;5.15;100.00;99420.09;4917286;29;20419;-66
2022/11/23 06:38:26;;;;;;;10.60;6.13;;;;;;;5.17;100.00;99426.88;4917177;29;20047;-66
2022/11/23 06:41:04;;;;;;;12.02;6.47;;;;;;;5.15;100.00;99434.47;4917196;29;20055;-66
2022/11/23 06:43:32;;;;;;;12.48;6.78;;;;;;;5.19;100.00;99440.16;4913786;29;20060;-66
2022/11/23 06:46:04;;;;;;;14.57;7.60;;;;;;;5.43;100.00;99453.16;4930733;29;20048;-66
2022/11/23 06:48:34;;;;;;;;;;;;;;;5.41;100.00;99450.72;4914136;29;20052;-67
2022/11/23 06:51:03;;;;;;;11.18;7.78;;;;;;;5.29;100.00;99452.91;4930675;29;19926;-67
2022/11/23 06:53:31;;;;;;;11.23;7.40;;;;;;;5.15;100.00;99455.34;4930284;29;20055;-67
2022/11/23 06:56:03;;;;;;;10.48;6.82;;;;;;;5.14;100.00;99451.00;4930660;29;20048;-67
2022/11/23 06:58:32;;;;;;;11.73;7.68;;;;;;;5.07;100.00;99454.81;4913857;29;20048;-67
2022/11/23 07:01:06;;;;;;;11.82;7.90;;;;;;;5.20;100.00;99458.06;4913636;29;20052;-67
2022/11/23 07:03:40;;;;;;;13.63;7.90;;;;;;;5.33;100.00;99462.94;4914254;29;20048;-67
2022/11/23 07:06:20;;;;;;;12.63;7.70;;;;;;;5.42;100.00;99465.13;4929719;29;20059;-67
2022/11/23 07:08:54;;;;;;;17.10;9.50;;;;;;;5.50;99.77;99483.53;4930609;29;20044;-67
2022/11/23 07:11:31;;;;;;;15.43;9.43;;;;;;;5.49;99.65;99487.34;4929770;29;20055;-66
2022/11/23 07:14:00;;;;;;;14.48;9.38;;;;;;;5.61;99.27;99485.16;4914438;29;20056;-66
2022/11/23 07:16:30;;;;;;;15.45;9.05;;;;;;;5.48;99.61;99497.38;4930291;29;20044;-67
2022/11/23 07:18:58;;;;;;;14.23;9.60;;;;;;;5.73;99.95;99498.44;4913774;29;20062;-67
2022/11/23 07:21:26;;;;;;;15.60;9.15;;;;;;;6.00;99.88;99507.34;4914437;29;20063;-67
2022/11/23 07:23:55;;;;;;;15.13;9.30;;;;;;;6.29;99.43;99512.16;4877743;29;20069;-67
2022/11/23 07:26:23;;;;;;;15.60;9.77;;;;;;;6.59;98.32;99513.97;4892393;29;20060;-67
2022/11/23 07:28:53;;;;;;;13.65;8.55;;;;;;;6.59;96.63;99504.97;4876840;29;20055;-67
2022/11/23 07:31:21;;;;;;;13.95;8.73;;;;;;;6.47;97.75;99518.09;4892343;29;20049;-67
2022/11/23 07:33:49;;;;;;;11.93;8.05;;;;;;;6.66;96.57;99516.38;4891529;29;20524;-67
2022/11/23 07:36:18;;;;;;;13.85;8.30;;;;;;;6.72;95.17;99523.41;4891505;29;20064;-68
2022/11/23 07:38:46;;;;;;;14.65;8.82;;;;;;;6.92;95.45;99524.38;4875601;29;20524;-67
2022/11/23 07:41:16;;;;;;;12.50;8.55;;;;;;;6.97;94.40;99531.69;4892252;29;20065;-67
2022/11/23 07:44:05;;;;;;;11.75;8.15;;;;;;;6.96;94.58;99527.34;4877380;29;20069;-67
2022/11/23 07:46:33;;;;;;;12.38;7.38;;;;;;;7.05;94.27;99533.84;4877566;29;20041;-67
2022/11/23 07:49:01;;;;;;;11.90;8.23;;;;;;;7.18;94.47;99540.53;4877915;29;20421;-67
2022/11/23 07:51:29;;;;;;;15.18;8.52;;;;;;;7.40;93.29;99531.13;4877436;29;20409;-67
2022/11/23 07:53:57;;;;;;;11.50;7.70;;;;;;;7.52;93.22;99539.75;4877578;29;20488;-67
2022/11/23 07:56:25;;;;;;;11.25;7.40;;;;;;;7.75;90.96;99547.44;4877792;29;20048;-67
2022/11/23 07:58:53;;;;;;;9.13;6.43;;;;;;;7.77;91.14;99543.34;4877866;29;20052;-67
2022/11/23 08:01:21;;;;;;;13.18;6.95;;;;;;;7.96;91.74;99553.50;4877582;29;20409;-67
2022/11/23 08:03:48;;;;;;;10.02;6.88;;;;;;;7.92;90.18;99547.81;4877893;29;20057;-67
2022/11/23 08:06:17;;;;;;;9.60;6.25;;;;;;;8.00;90.62;99557.28;4877390;29;20064;-67
2022/11/23 08:08:44;;;;;;;10.10;7.20;;;;;;;7.95;91.26;99557.34;4877978;29;20084;-67
2022/11/23 08:11:19;;;;;;;10.10;7.05;;;;;;;8.27;91.29;99560.56;4877205;29;20065;-67
2022/11/23 08:13:47;;;;;;;10.15;6.97;;;;;;;8.26;90.35;99561.66;4878137;29;20052;-67
2022/11/23 08:16:15;;;;;;;12.55;7.50;;;;;;;8.64;89.65;99567.25;4877720;29;20054;-67
2022/11/23 08:18:43;;;;;;;9.57;7.07;;;;;;;8.72;88.58;99563.06;4877361;29;20049;-67
2022/11/23 08:21:11;;;;;;;8.95;6.43;;;;;;;8.93;87.08;99568.22;4877384;29;20076;-67
2022/11/23 08:23:39;;;;;;;13.35;6.75;;;;;;;9.14;86.07;99568.75;4910536;29;20067;-67
2022/11/23 08:26:07;;;;;;;8.18;6.18;;;;;;;9.20;86.64;99573.06;4918024;29;20044;-67
2022/11/23 08:28:40;;;;;;;9.43;5.90;;;;;;;9.44;85.48;99577.63;4918665;29;20063;-67
2022/11/23 08:31:13;;;;;;;8.52;5.82;;;;;;;9.49;86.82;99584.91;4918092;29;20048;-67
2022/11/23 08:33:41;;;;;;;9.80;6.57;;;;;;;9.72;85.47;99583.16;4917689;29;20067;-67
2022/11/23 08:36:09;;;;;;;9.45;6.50;;;;;;;9.98;86.49;99580.00;4918134;29;20304;-67
2022/11/23 08:38:37;;;;;;;14.27;6.35;;;;;;;10.14;85.53;99580.53;4917459;29;20048;-67
2022/11/23 08:41:05;;;;;;;11.48;7.72;;;;;;;10.05;85.91;99587.81;4917256;29;20056;-67
2022/11/23 08:43:34;;;;;;;13.10;7.53;;;;;;;10.38;84.65;99593.22;4917580;29;20051;-70
2022/11/23 08:46:03;;;;;;;9.90;7.25;;;;;;;10.69;83.05;99600.03;4931869;29;20059;-69
2022/11/23 08:48:37;;;;;;;16.60;9.15;;;;;;;10.54;83.89;99595.69;4915774;29;20515;-69
2022/11/23 08:51:06;;;;;;;15.43;9.38;;;;;;;10.79;82.75;99593.56;4901230;29;20052;-68
2022/11/23 08:53:35;;;;;;;19.92;10.10;;;;;;;10.84;81.88;99601.63;4901214;29;20052;-69
2022/11/23 08:56:05;;;;;;;24.02;11.43;;;;;;;11.34;82.56;99600.03;4932075;29;20052;-69
2022/11/23 08:58:33;;;;;;;12.48;8.45;;;;;;;11.37;80.66;99597.50;4916481;29;20500;-69
2022/11/23 09:01:07;;;;;;;68.05;25.42;;;;;;;11.69;79.33;99600.31;4916639;29;20133;-68
2022/11/23 09:03:37;;;;;;;30.25;17.15;;;;;;;11.91;78.41;99604.16;4916962;29;20399;-67
2022/11/23 09:06:05;;;;;;;20.92;11.30;;;;;;;11.72;79.06;99607.09;4916278;29;20500;-68
2022/11/23 09:08:34;;;;;;;16.17;10.02;;;;;;;11.50;80.56;99609.53;4916669;29;20059;-68
2022/11/23 09:11:05;;;;;;;17.63;8.52;;;;;;;11.73;78.45;99606.78;4900450;29;20419;-68
2022/11/23 09:13:37;;;;;;;14.52;9.55;;;;;;;11.91;77.77;99604.16;4916617;29;20407;-68
2022/11/23 09:16:06;;;;;;;11.32;8.70;;;;;;;11.99;77.45;99603.41;4916122;29;20412;-68
2022/11/23 09:18:35;;;;;;;15.70;8.88;;;;;;;12.11;76.50;99610.28;4916430;29;20052;-68
2022/11/23 09:21:05;;;;;;;14.98;8.77;;;;;;;12.23;76.23;99607.75;4916283;29;20052;-68
2022/11/23 09:23:33;;;;;;;13.02;8.52;;;;;;;12.33;76.36;99603.94;4917401;29;20059;-68
2022/11/23 09:26:03;;;;;;;18.48;9.65;;;;;;;12.56;76.52;99609.38;4917557;29;20052;-67
2022/11/23 09:28:32;;;;;;;17.23;8.77;;;;;;;12.76;75.63;99614.25;4917653;29;20047;-67
2022/11/23 09:31:03;;;;;;;12.95;8.75;;;;;;;12.72;75.29;99607.00;4917445;29;20044;-67
2022/11/23 09:33:31;;;;;;;16.27;9.10;;;;;;;12.63;73.84;99605.00;4917472;29;20052;-67
2022/11/23 09:36:01;;;;;;;11.35;7.95;;;;;;;12.99;72.39;99605.09;4916821;29;20044;-67
2022/11/23 09:38:29;;;;;;;12.48;7.82;;;;;;;13.12;70.99;99612.41;4917394;29;20515;-67
2022/11/23 09:41:36;;;;;;;11.77;7.85;;;;;;;13.13;69.97;99615.94;4917226;29;20130;-67
2022/11/23 09:44:10;;;;;;;10.73;7.05;;;;;;;13.34;69.86;99610.63;4917184;29;20056;-67
2022/11/23 09:47:11;;;;;;;11.07;7.65;;;;;;;13.34;69.17;99602.41;4931576;29;20424;-70
2022/11/23 09:49:54;;;;;;;13.20;8.60;;;;;;;13.56;68.64;99614.41;4917069;29;20055;-71
2022/11/23 09:52:23;;;;;;;13.35;8.10;;;;;;;13.72;68.15;99608.41;4917184;29;20051;-71
2022/11/23 09:54:55;;;;;;;12.73;7.18;;;;;;;13.70;67.59;99601.28;4917288;29;20479;-71
2022/11/23 09:57:28;;;;;;;11.98;7.90;;;;;;;13.83;68.21;99593.16;4917437;29;20392;-71
2022/11/23 10:00:01;;;;;;;12.23;7.60;;;;;;;13.85;63.81;99599.16;4931860;29;20048;-71
2022/11/23 10:02:35;;;;;;;8.75;6.07;;;;;;;13.44;63.61;99599.34;4917316;29;20166;-71
2022/11/23 10:05:04;;;;;;;12.57;7.30;;;;;;;13.68;63.88;99591.75;4917252;29;20484;-71
2022/11/23 10:07:53;;;;;;;10.70;6.72;;;;;;;13.78;63.15;99596.13;4917228;29;20052;-71
2022/11/23 10:10:43;;;;;;;10.02;6.68;;;;;;;14.08;62.37;99599.75;4917186;29;20499;-71
2022/11/23 10:14:09;;;;;;;14.52;7.43;;;;;;;14.11;64.19;99595.53;4917096;29;20048;-71
2022/11/23 10:16:52;;;;;;;11.20;7.18;;;;;;;14.45;61.68;99596.56;4833707;29;20072;-71
2022/11/23 10:19:50;;;;;;;18.83;10.55;;;;;;;14.35;60.37;99596.94;4916906;29;20052;-71
2022/11/23 10:22:25;;;;;;;13.45;7.82;;;;;;;14.49;60.45;99603.03;4916563;29;20381;-71
2022/11/23 10:25:02;;;;;;;17.25;9.57;;;;;;;14.49;59.31;99600.28;4916877;29;20487;-71
2022/11/23 10:27:30;;;;;;;10.70;6.60;;;;;;;14.54;60.74;99595.72;4916809;29;20404;-71
2022/11/23 10:29:59;;;;;;;9.45;6.15;;;;;;;14.45;61.75;99593.00;4916589;29;20514;-71
2022/11/23 10:32:36;;;;;;;10.75;6.63;;;;;;;14.61;58.76;99587.72;4916456;29;20499;-71
2022/11/23 10:35:13;;;;;;;9.63;5.95;;;;;;;14.43;59.95;99574.06;4931162;29;20071;-71
2022/11/23 10:37:41;;;;;;;8.40;4.72;;;;;;;14.13;57.21;99587.75;4916572;29;20048;-68
2022/11/23 10:40:17;;;;;;;7.32;4.43;;;;;;;14.29;58.12;99584.47;4916401;29;20249;-67
2022/11/23 10:42:53;;;;;;;10.27;5.85;;;;;;;14.23;57.40;99590.16;4915068;29;20048;-68
2022/11/23 10:45:24;;;;;;;7.93;5.13;;;;;;;14.33;56.58;99588.19;4916337;29;20052;-68
2022/11/23 10:48:00;;;;;;;7.47;4.85;;;;;;;14.33;58.39;99597.25;4915458;29;20052;-68
2022/11/23 10:50:29;;;;;;;8.15;4.80;;;;;;;14.55;57.14;99586.31;4916342;29;20513;-68
2022/11/23 10:53:00;;;;;;;7.15;4.25;;;;;;;14.38;55.17;99593.53;4916299;29;20504;-69
2022/11/23 10:55:30;;;;;;;8.95;4.95;;;;;;;14.29;56.28;99585.31;4916331;29;20044;-68
2022/11/23 10:57:59;;;;;;;7.70;5.05;;;;;;;14.24;57.16;99589.03;4899179;29;20083;-68
2022/11/23 11:00:28;;;;;;;8.80;4.65;;;;;;;14.37;55.97;99589.94;4916188;29;20044;-68
2022/11/23 11:02:59;;;;;;;12.25;5.13;;;;;;;14.49;56.03;99583.75;4898478;29;20056;-68
2022/11/23 11:05:34;;;;;;;6.32;4.30;;;;;;;14.46;55.61;99583.59;4916168;29;20051;-68
2022/11/23 11:08:30;;;;;;;7.60;4.63;;;;;;;14.47;54.79;99582.47;4916036;29;20048;-68
2022/11/23 11:11:24;;;;;;;5.60;4.40;;;;;;;14.45;54.01;99582.81;4916002;29;20048;-68
2022/11/23 11:14:13;;;;;;;10.38;5.05;;;;;;;14.60;57.04;99591.63;4924196;29;20044;-68
2022/11/23 11:16:50;;;;;;;5.82;4.70;;;;;;;14.55;57.21;99578.88;4941329;29;20051;-69
2022/11/23 11:19:28;;;;;;;6.18;4.15;;;;;;;14.24;55.45;99580.75;4934898;29;20050;-69
2022/11/23 11:21:58;;;;;;;9.38;5.65;;;;;;;14.34;58.03;99589.81;4932330;29;20070;-69
2022/11/23 11:24:36;;;;;;;8.27;5.22;;;;;;;14.50;56.60;99587.31;4934665;29;20411;-69
2022/11/23 11:27:15;;;;;;;6.53;5.28;;;;;;;14.42;55.75;99579.91;4934484;29;20047;-69
2022/11/23 11:29:43;;;;;;;6.68;5.22;;;;;;;14.88;54.61;99586.50;4934021;29;20091;-69
2022/11/23 11:32:27;;;;;;;7.00;4.18;;;;;;;14.74;55.47;99585.91;4934286;29;20495;-68
2022/11/23 11:35:13;;;;;;;7.30;4.65;;;;;;;14.97;54.10;99582.88;4934161;29;20078;-69
2022/11/23 11:37:50;;;;;;;7.00;4.95;;;;;;;15.13;54.19;99580.31;4934298;29;20435;-70
2022/11/23 11:40:27;;;;;;;6.72;4.38;;;;;;;15.17;53.92;99581.28;4934700;29;20047;-69
2022/11/23 11:43:04;;;;;;;7.35;4.18;;;;;;;15.20;53.55;99583.34;4934621;29;20055;-69
2022/11/23 11:45:37;;;;;;;6.00;4.80;;;;;;;15.13;53.88;99578.38;4934567;29;20042;-69
2022/11/23 11:48:31;;;;;;;6.95;3.92;;;;;;;14.87;51.43;99575.81;4949259;29;20055;-68
2022/11/23 11:51:06;;;;;;;5.38;4.10;;;;;;;14.87;53.24;99565.59;4934454;29;20066;-68
2022/11/23 11:53:46;;;;;;;8.20;4.38;;;;;;;14.89;51.90;99568.84;4934572;29;20047;-68
2022/11/23 11:56:38;;;;;;;4.70;4.10;;;;;;;14.98;52.23;99573.47;4934526;29;20051;-68
2022/11/23 11:59:25;;;;;;;6.90;3.88;;;;;;;15.16;52.12;99568.66;4937036;29;20487;-68